createdAt,value
2023-05-12T00:01:01.636Z,13.71
2023-05-12T00:04:04.533Z,13.81
2023-05-12T00:07:07.495Z,13.73
2023-05-12T00:10:10.358Z,13.62
2023-05-12T00:13:12.852Z,13.69
2023-05-12T00:16:17.563Z,13.58
2023-05-12T00:19:21.326Z,13.51
2023-05-12T00:22:23.808Z,13.54
2023-05-12T00:25:26.303Z,13.59
2023-05-12T00:28:28.724Z,13.41
2023-05-12T00:31:32.476Z,13.38
2023-05-12T00:34:34.916Z,13.43
2023-05-12T00:37:38.192Z,13.27
2023-05-12T00:40:41.405Z,13.23
2023-05-12T00:43:43.865Z,13.30
2023-05-12T00:46:46.382Z,13.19
2023-05-12T00:49:49.020Z,13.17
2023-05-12T00:52:52.164Z,13.04
2023-05-12T00:55:55.710Z,13.10
2023-05-12T00:58:59.338Z,13.04
2023-05-12T01:02:02.134Z,12.89
2023-05-12T01:05:05.724Z,13.10
2023-05-12T01:08:09.449Z,13.03
2023-05-12T01:11:12.099Z,13.01
2023-05-12T01:14:15.158Z,12.92
2023-05-12T01:17:22.293Z,12.91
2023-05-12T01:20:28.635Z,12.89
2023-05-12T01:23:37.540Z,12.81
2023-05-12T01:26:40.204Z,12.77
2023-05-12T01:29:45.529Z,12.79
2023-05-12T01:32:48.495Z,12.80
2023-05-12T01:35:50.942Z,12.81
2023-05-12T01:38:55.200Z,12.85
2023-05-12T01:41:57.826Z,12.93
2023-05-12T01:45:00.313Z,12.75
2023-05-12T01:48:04.118Z,12.83
2023-05-12T01:51:09.804Z,12.76
2023-05-12T01:54:12.369Z,12.76
2023-05-12T01:57:14.864Z,12.70
2023-05-12T02:00:18.405Z,12.78
2023-05-12T02:03:23.743Z,12.62
2023-05-12T02:06:27.256Z,12.53
2023-05-12T02:09:29.974Z,12.50
2023-05-12T02:12:36.178Z,12.56
2023-05-12T02:15:38.637Z,12.62
2023-05-12T02:18:41.254Z,12.65
2023-05-12T02:21:46.120Z,12.49
2023-05-12T02:24:48.647Z,12.47
2023-05-12T02:27:52.042Z,12.44
2023-05-12T02:30:54.830Z,12.53
2023-05-12T02:33:58.887Z,12.49
2023-05-12T02:37:01.721Z,12.45
2023-05-12T02:40:04.847Z,12.56
2023-05-12T02:43:07.445Z,12.67
2023-05-12T02:46:10.175Z,12.59
2023-05-12T02:49:12.692Z,12.73
2023-05-12T02:52:15.246Z,12.75
2023-05-12T02:55:17.796Z,12.75
2023-05-12T02:58:20.211Z,12.83
2023-05-12T03:01:22.796Z,12.86
2023-05-12T03:04:25.384Z,12.88
2023-05-12T03:07:27.970Z,12.76
2023-05-12T03:10:31.507Z,12.71
2023-05-12T03:13:33.921Z,12.77
2023-05-12T03:16:37.003Z,12.64
2023-05-12T03:19:39.768Z,12.70
2023-05-12T03:22:42.229Z,12.68
2023-05-12T03:25:46.370Z,12.61
2023-05-12T03:28:49.240Z,12.68
2023-05-12T03:31:51.741Z,12.65
2023-05-12T03:34:54.914Z,12.58
2023-05-12T03:37:57.568Z,12.57
2023-05-12T03:41:06.901Z,12.63
2023-05-12T03:44:11.189Z,12.72
2023-05-12T03:47:13.889Z,12.70
2023-05-12T03:50:16.630Z,12.74
2023-05-12T03:53:19.880Z,12.62
2023-05-12T03:56:22.955Z,12.58
2023-05-12T03:59:25.779Z,12.52
2023-05-12T04:02:28.362Z,12.43
2023-05-12T04:05:30.942Z,12.57
2023-05-12T04:08:34.160Z,12.59
2023-05-12T04:11:37.060Z,12.55
2023-05-12T04:14:43.281Z,12.58
2023-05-12T04:17:45.996Z,12.44
2023-05-12T04:20:48.561Z,12.62
2023-05-12T04:23:52.789Z,12.71
2023-05-12T04:26:57.653Z,12.69
2023-05-12T04:30:00.171Z,12.68
2023-05-12T04:33:02.908Z,12.70
2023-05-12T04:36:05.815Z,12.79
2023-05-12T04:39:08.873Z,12.79
2023-05-12T04:42:11.448Z,12.74
2023-05-12T04:45:14.026Z,12.81
2023-05-12T04:48:16.768Z,12.90
2023-05-12T04:51:19.142Z,12.91
2023-05-12T04:54:22.014Z,12.84
2023-05-12T04:57:24.652Z,12.95
2023-05-12T05:00:27.484Z,13.01
2023-05-12T05:03:30.417Z,13.02
2023-05-12T05:06:33.311Z,13.11
2023-05-12T05:09:36.972Z,13.10
2023-05-12T05:12:39.597Z,13.05
2023-05-12T05:15:53.248Z,13.15
2023-05-12T05:18:58.261Z,13.31
2023-05-12T05:22:01.438Z,13.14
2023-05-12T05:25:04.416Z,13.25
2023-05-12T05:28:08.246Z,13.37
2023-05-12T05:31:17.051Z,13.31
2023-05-12T05:34:19.949Z,13.42
2023-05-12T05:37:23.261Z,13.49
2023-05-12T05:40:25.882Z,13.59
2023-05-12T05:43:29.870Z,13.62
2023-05-12T05:46:33.361Z,13.63
2023-05-12T05:49:36.761Z,13.65
2023-05-12T05:52:39.369Z,13.80
2023-05-12T05:55:42.055Z,13.91
2023-05-12T05:58:44.679Z,13.85
2023-05-12T06:01:48.225Z,13.93
2023-05-12T06:04:52.522Z,14.01
2023-05-12T06:07:55.428Z,14.14
2023-05-12T06:10:57.965Z,14.13
2023-05-12T06:14:00.450Z,14.07
2023-05-12T06:17:03.094Z,14.08
2023-05-12T06:20:06.763Z,14.38
2023-05-12T06:23:09.627Z,14.30
2023-05-12T06:26:12.099Z,14.30
2023-05-12T06:29:15.239Z,14.25
2023-05-12T06:32:17.845Z,14.39
2023-05-12T06:35:20.616Z,14.46
2023-05-12T06:38:23.246Z,14.61
2023-05-12T06:41:26.002Z,14.62
2023-05-12T06:44:28.671Z,14.61
2023-05-12T06:47:31.156Z,14.68
2023-05-12T06:50:33.882Z,14.75
2023-05-12T06:53:39.330Z,14.68
2023-05-12T06:56:41.962Z,14.64
2023-05-12T06:59:44.560Z,14.78
2023-05-12T07:02:47.250Z,14.56
2023-05-12T07:05:49.791Z,14.59
2023-05-12T07:08:52.298Z,14.56
2023-05-12T07:11:55.178Z,14.53
2023-05-12T07:14:57.657Z,14.33
2023-05-12T07:18:00.383Z,14.12
2023-05-12T07:21:03.006Z,14.08
2023-05-12T07:24:07.330Z,14.13
2023-05-12T07:27:09.907Z,14.17
2023-05-12T07:30:12.898Z,14.22
2023-05-12T07:33:15.333Z,14.08
2023-05-12T07:36:18.297Z,14.15
2023-05-12T07:39:23.929Z,14.15
2023-05-12T07:42:26.778Z,14.23
2023-05-12T07:45:29.298Z,14.30
2023-05-12T07:48:32.060Z,14.41
2023-05-12T07:51:34.564Z,14.42
2023-05-12T07:54:37.253Z,14.47
2023-05-12T07:57:39.707Z,14.54
2023-05-12T08:00:42.596Z,14.39
2023-05-12T08:03:45.163Z,14.30
2023-05-12T08:06:47.644Z,14.35
2023-05-12T08:09:50.168Z,14.30
2023-05-12T08:12:57.406Z,14.28
2023-05-12T08:15:59.861Z,14.22
2023-05-12T08:19:02.492Z,14.06
2023-05-12T08:22:05.133Z,14.19
2023-05-12T08:25:09.776Z,14.13
2023-05-12T08:28:14.984Z,14.17
2023-05-12T08:31:17.612Z,14.23
2023-05-12T08:34:20.286Z,14.28
2023-05-12T08:37:22.826Z,14.06
2023-05-12T08:40:26.495Z,14.07
2023-05-12T08:43:44.172Z,13.97
2023-05-12T08:46:48.097Z,13.89
2023-05-12T08:49:59.779Z,14.05
2023-05-12T08:53:05.539Z,14.15
2023-05-12T08:59:15.508Z,14.00
2023-05-12T09:02:20.702Z,13.81
2023-05-12T09:05:23.560Z,13.80
2023-05-12T09:08:28.789Z,13.73
2023-05-12T09:11:31.233Z,13.70
2023-05-12T09:14:35.732Z,13.99
2023-05-12T09:17:38.280Z,13.93
2023-05-12T09:20:41.061Z,13.76
2023-05-12T09:23:57.762Z,13.77
2023-05-12T09:27:00.283Z,13.65
2023-05-12T09:30:02.879Z,13.49
2023-05-12T09:33:09.877Z,13.45
2023-05-12T09:36:16.844Z,13.52
2023-05-12T09:39:19.210Z,13.48
2023-05-12T09:42:23.726Z,13.52
2023-05-12T09:45:26.303Z,13.54
2023-05-12T09:48:30.374Z,13.54
2023-05-12T09:51:33.116Z,13.67
2023-05-12T09:54:40.334Z,13.79
2023-05-12T09:57:44.331Z,13.76
2023-05-12T10:03:55.919Z,13.90
2023-05-12T10:06:59.566Z,13.84
2023-05-12T10:10:05.616Z,13.98
2023-05-12T10:13:08.660Z,13.99
2023-05-12T10:16:11.476Z,13.98
2023-05-12T10:19:14.654Z,13.84
2023-05-12T10:22:19.659Z,13.74
2023-05-12T10:25:23.392Z,13.91
2023-05-12T10:28:25.968Z,13.99
2023-05-12T10:31:28.982Z,13.95
2023-05-12T10:34:36.853Z,13.89
2023-05-12T10:37:39.725Z,13.99
2023-05-12T10:40:58.116Z,14.24
2023-05-12T10:44:01.375Z,14.17
2023-05-12T10:47:14.751Z,14.31
2023-05-12T10:50:27.150Z,14.24
2023-05-12T10:53:47.786Z,14.22
2023-05-12T10:56:53.640Z,14.22
2023-05-12T10:59:59.739Z,14.03
2023-05-12T11:03:09.706Z,14.13
2023-05-12T11:06:19.388Z,13.98
2023-05-12T11:09:22.493Z,14.05
2023-05-12T11:12:32.585Z,13.81
2023-05-12T11:15:35.352Z,13.55
2023-05-12T11:18:39.129Z,13.29
2023-05-12T11:21:41.969Z,13.38
2023-05-12T11:24:44.757Z,13.33
2023-05-12T11:27:51.400Z,13.32
2023-05-12T11:30:55.556Z,13.33
2023-05-12T11:34:12.746Z,13.32
2023-05-12T11:37:15.774Z,13.27
2023-05-12T11:40:20.937Z,13.17
2023-05-12T11:43:23.534Z,13.24
2023-05-12T11:46:27.610Z,13.26
2023-05-12T11:49:31.735Z,13.40
2023-05-12T11:52:34.320Z,13.38
2023-05-12T11:55:37.278Z,13.59
2023-05-12T11:58:39.831Z,13.64
2023-05-12T12:01:46.751Z,13.65
2023-05-12T12:04:49.314Z,13.69
2023-05-12T12:07:54.226Z,13.54
2023-05-12T12:10:56.766Z,13.60
2023-05-12T12:13:59.350Z,13.63
2023-05-12T12:17:02.785Z,13.53
2023-05-12T12:20:06.715Z,13.58
2023-05-12T12:23:09.226Z,13.63
2023-05-12T12:26:11.718Z,13.64
2023-05-12T12:29:14.656Z,13.62
2023-05-12T12:32:17.734Z,13.57
2023-05-12T12:35:20.933Z,13.81
2023-05-12T12:38:23.582Z,13.76
2023-05-12T12:41:26.221Z,13.79
2023-05-12T12:44:30.249Z,13.92
2023-05-12T12:47:33.207Z,13.94
2023-05-12T12:50:36.944Z,14.05
2023-05-12T12:53:39.760Z,13.89
2023-05-12T12:56:44.483Z,13.93
2023-05-12T12:59:47.032Z,13.97
2023-05-12T13:02:50.767Z,14.03
2023-05-12T13:05:54.089Z,14.03
2023-05-12T13:08:56.657Z,13.91
2023-05-12T13:11:59.725Z,14.14
2023-05-12T13:15:03.133Z,13.96
2023-05-12T13:18:06.126Z,13.87
2023-05-12T13:21:08.856Z,13.93
2023-05-12T13:24:11.384Z,13.78
2023-05-12T13:27:14.259Z,13.68
2023-05-12T13:30:16.834Z,13.64
2023-05-12T13:33:19.503Z,13.76
2023-05-12T13:36:22.549Z,13.64
2023-05-12T13:39:25.018Z,13.53
2023-05-12T13:42:27.534Z,13.60
2023-05-12T13:45:30.194Z,13.48
2023-05-12T13:48:33.052Z,13.38
2023-05-12T13:51:36.179Z,13.46
2023-05-12T13:54:38.799Z,13.50
2023-05-12T13:57:41.184Z,13.31
2023-05-12T14:00:43.643Z,13.38
2023-05-12T14:03:46.155Z,13.37
2023-05-12T14:06:48.601Z,13.39
2023-05-12T14:09:51.067Z,13.43
2023-05-12T14:12:53.612Z,13.54
2023-05-12T14:15:56.398Z,13.66
2023-05-12T14:19:00.319Z,13.70
2023-05-12T14:22:05.886Z,13.71
2023-05-12T14:25:12.686Z,13.48
2023-05-12T14:28:15.183Z,13.51
2023-05-12T14:31:18.011Z,13.40
2023-05-12T14:34:20.589Z,13.50
2023-05-12T14:37:23.068Z,13.40
2023-05-12T14:40:26.740Z,13.48
2023-05-12T14:43:29.165Z,13.38
2023-05-12T14:46:31.671Z,13.24
2023-05-12T14:49:34.088Z,13.19
2023-05-12T14:52:38.628Z,13.21
2023-05-12T14:55:41.135Z,13.05
2023-05-12T14:58:43.510Z,13.09
2023-05-12T15:01:46.096Z,13.15
2023-05-12T15:04:48.787Z,13.09
2023-05-12T15:07:51.243Z,13.10
2023-05-12T15:10:53.667Z,13.09
2023-05-12T15:13:56.129Z,13.02
2023-05-12T15:16:58.695Z,12.97
2023-05-12T15:20:01.220Z,13.04
2023-05-12T15:23:03.801Z,12.92
2023-05-12T15:26:20.746Z,12.89
2023-05-12T15:29:32.038Z,12.95
2023-05-12T15:32:34.542Z,12.88
2023-05-12T15:35:37.285Z,12.69
2023-05-12T15:38:39.876Z,12.94
2023-05-12T15:41:46.371Z,12.78
2023-05-12T15:44:49.333Z,12.77
2023-05-12T15:47:52.200Z,12.79
2023-05-12T15:50:55.292Z,12.88
2023-05-12T15:53:57.718Z,12.84
2023-05-12T15:57:00.235Z,12.84
2023-05-12T16:00:03.285Z,12.86
2023-05-12T16:03:15.696Z,12.70
2023-05-12T16:06:18.599Z,12.79
2023-05-12T16:09:21.134Z,12.79
2023-05-12T16:12:23.674Z,12.82
2023-05-12T16:15:26.312Z,12.64
2023-05-12T16:18:30.639Z,12.62
2023-05-12T16:21:33.264Z,12.73
2023-05-12T16:24:36.015Z,12.76
2023-05-12T16:27:38.958Z,12.91
2023-05-12T16:30:41.477Z,12.63
2023-05-12T16:33:44.304Z,12.66
2023-05-12T16:36:46.833Z,12.67
2023-05-12T16:39:49.537Z,12.61
2023-05-12T16:42:52.730Z,12.61
2023-05-12T16:46:02.515Z,12.63
2023-05-12T16:49:05.294Z,12.72
2023-05-12T16:52:09.497Z,12.63
2023-05-12T16:55:13.253Z,12.48
2023-05-12T16:58:15.845Z,12.58
2023-05-12T17:01:18.690Z,12.59
2023-05-12T17:04:21.136Z,12.66
2023-05-12T17:07:24.084Z,12.55
2023-05-12T17:10:26.874Z,12.63
2023-05-12T17:13:30.571Z,12.55
2023-05-12T17:16:33.910Z,12.67
2023-05-12T17:19:41.877Z,12.60
2023-05-12T17:22:47.388Z,12.57
2023-05-12T17:25:49.852Z,12.62
2023-05-12T17:28:52.343Z,12.62
2023-05-12T17:31:55.014Z,12.49
2023-05-12T17:35:00.301Z,12.62
2023-05-12T17:38:02.771Z,12.41
2023-05-12T17:41:06.393Z,12.39
2023-05-12T17:44:09.372Z,12.20
2023-05-12T17:47:14.516Z,12.34
2023-05-12T17:50:17.192Z,12.27
2023-05-12T17:53:20.123Z,12.21
2023-05-12T17:56:22.976Z,12.13
2023-05-12T17:59:25.529Z,12.11
2023-05-12T18:02:28.115Z,12.11
2023-05-12T18:05:30.714Z,12.09
2023-05-12T18:08:33.386Z,12.16
2023-05-12T18:11:36.180Z,12.04
2023-05-12T18:14:38.717Z,12.13
2023-05-12T18:17:41.454Z,11.97
2023-05-12T18:20:44.203Z,12.01
2023-05-12T18:23:46.698Z,12.02
2023-05-12T18:26:49.686Z,11.93
2023-05-12T18:29:52.489Z,12.00
2023-05-12T18:32:55.260Z,12.01
2023-05-12T18:35:57.950Z,11.84
2023-05-12T18:39:00.363Z,11.94
2023-05-12T18:42:03.608Z,11.89
2023-05-12T18:45:06.923Z,11.93
2023-05-12T18:48:09.437Z,11.96
2023-05-12T18:51:12.016Z,11.79
2023-05-12T18:54:14.603Z,11.80
2023-05-12T18:57:17.461Z,11.73
2023-05-12T19:00:25.946Z,11.68
2023-05-12T19:03:28.542Z,11.71
2023-05-12T19:06:31.256Z,11.70
2023-05-12T19:09:33.727Z,11.65
2023-05-12T19:12:36.262Z,11.68
2023-05-12T19:15:38.773Z,11.50
2023-05-12T19:18:41.298Z,11.50
2023-05-12T19:21:43.779Z,11.52
2023-05-12T19:24:46.433Z,11.60
2023-05-12T19:27:48.922Z,11.65
2023-05-12T19:30:51.579Z,11.48
2023-05-12T19:33:54.080Z,11.55
2023-05-12T19:36:58.269Z,11.63
2023-05-12T19:40:00.866Z,11.71
2023-05-12T19:43:05.159Z,11.60
2023-05-12T19:46:07.789Z,11.62
2023-05-12T19:49:10.471Z,11.54
2023-05-12T19:52:12.954Z,11.63
2023-05-12T19:55:15.839Z,11.70
2023-05-12T19:58:18.225Z,11.64
2023-05-12T20:01:20.892Z,11.64
2023-05-12T20:04:23.877Z,11.66
2023-05-12T20:07:26.968Z,11.56
2023-05-12T20:10:29.459Z,11.68
2023-05-12T20:13:31.879Z,11.62
2023-05-12T20:16:34.327Z,11.54
2023-05-12T20:19:36.759Z,11.53
2023-05-12T20:22:39.167Z,11.57
2023-05-12T20:25:41.624Z,11.62
2023-05-12T20:28:44.034Z,11.60
2023-05-12T20:31:48.011Z,11.66
2023-05-12T20:34:50.434Z,11.52
2023-05-12T20:37:53.188Z,11.61
2023-05-12T20:40:55.748Z,11.63
2023-05-12T20:43:58.430Z,11.69
2023-05-12T20:47:01.023Z,11.53
2023-05-12T20:50:05.732Z,11.64
2023-05-12T20:53:08.210Z,11.53
2023-05-12T20:56:10.788Z,11.75
2023-05-12T20:59:13.740Z,11.65
2023-05-12T21:02:18.940Z,11.66
2023-05-12T21:05:21.958Z,11.52
2023-05-12T21:08:24.530Z,11.64
2023-05-12T21:11:27.036Z,11.62
2023-05-12T21:14:29.414Z,11.61
2023-05-12T21:17:31.934Z,11.73
2023-05-12T21:20:35.096Z,11.58
2023-05-12T21:23:37.795Z,11.64
2023-05-12T21:26:40.210Z,11.79
2023-05-12T21:29:42.957Z,11.83
2023-05-12T21:32:45.520Z,11.86
2023-05-12T21:35:49.874Z,11.81
2023-05-12T21:38:52.387Z,11.86
2023-05-12T21:41:55.201Z,11.81
2023-05-12T21:44:57.617Z,11.80
2023-05-12T21:48:00.136Z,11.72
2023-05-12T21:51:03.496Z,11.77
2023-05-12T21:54:06.043Z,11.85
2023-05-12T21:57:08.429Z,11.80
2023-05-12T22:00:12.840Z,11.65
2023-05-12T22:03:17.886Z,11.77
2023-05-12T22:06:20.391Z,11.77
2023-05-12T22:09:22.887Z,11.64
2023-05-12T22:12:26.289Z,11.69
2023-05-12T22:15:28.760Z,11.74
2023-05-12T22:18:31.730Z,11.75
2023-05-12T22:21:34.396Z,11.86
2023-05-12T22:24:36.930Z,11.66
2023-05-12T22:27:39.319Z,11.69
2023-05-12T22:30:41.992Z,11.59
2023-05-12T22:33:44.380Z,11.63
2023-05-12T22:36:47.320Z,11.58
2023-05-12T22:39:50.118Z,11.57
2023-05-12T22:42:52.872Z,11.67
2023-05-12T22:45:57.904Z,11.65
2023-05-12T22:49:00.401Z,11.67
2023-05-12T22:52:02.892Z,11.55
2023-05-12T22:55:05.842Z,11.64
2023-05-12T22:58:08.303Z,11.59
2023-05-12T23:01:10.947Z,11.66
2023-05-12T23:04:13.468Z,11.57
2023-05-12T23:07:15.886Z,11.57
2023-05-12T23:10:18.472Z,11.64
2023-05-12T23:13:21.238Z,11.67
2023-05-12T23:16:24.020Z,11.60
2023-05-12T23:19:26.510Z,11.43
2023-05-12T23:22:28.960Z,11.61
2023-05-12T23:25:31.831Z,11.63
2023-05-12T23:28:34.319Z,11.53
2023-05-12T23:31:37.360Z,11.64
2023-05-12T23:34:42.895Z,11.57
2023-05-12T23:37:45.305Z,11.52
2023-05-12T23:40:47.718Z,11.55
2023-05-12T23:43:50.150Z,11.62
2023-05-12T23:46:52.814Z,11.55
2023-05-12T23:49:55.719Z,11.51
2023-05-12T23:52:58.169Z,11.54
2023-05-12T23:56:01.965Z,11.47
2023-05-12T23:59:04.441Z,11.46
